sensor_id;sensor_type;location;lat;lon;timestamp;P1;durP1;ratioP1;P2;durP2;ratioP2
73337;SDS011;61575;49.908;35.556;2023-05-10T00:01:49;2.10;;;1.10;;
73337;SDS011;61575;49.908;35.556;2023-05-10T00:04:52;3.97;;;1.20;;
73337;SDS011;61575;49.908;35.556;2023-05-10T00:07:53;2.85;;;1.10;;
73337;SDS011;61575;49.908;35.556;2023-05-10T00:10:55;2.88;;;1.00;;
73337;SDS011;61575;49.908;35.556;2023-05-10T00:13:57;3.40;;;1.10;;
73337;SDS011;61575;49.908;35.556;2023-05-10T00:16:59;2.33;;;1.00;;
73337;SDS011;61575;49.908;35.556;2023-05-10T00:20:01;3.13;;;1.10;;
73337;SDS011;61575;49.908;35.556;2023-05-10T00:23:06;3.22;;;1.20;;
73337;SDS011;61575;49.908;35.556;2023-05-10T00:26:08;2.45;;;1.00;;
73337;SDS011;61575;49.908;35.556;2023-05-10T00:29:11;2.75;;;0.95;;
73337;SDS011;61575;49.908;35.556;2023-05-10T00:32:13;2.00;;;0.80;;
73337;SDS011;61575;49.908;35.556;2023-05-10T00:35:15;2.95;;;1.10;;
73337;SDS011;61575;49.908;35.556;2023-05-10T00:38:17;3.17;;;1.03;;
73337;SDS011;61575;49.908;35.556;2023-05-10T00:41:19;2.97;;;1.00;;
73337;SDS011;61575;49.908;35.556;2023-05-10T00:44:22;3.45;;;1.30;;
73337;SDS011;61575;49.908;35.556;2023-05-10T00:47:24;2.30;;;1.02;;
73337;SDS011;61575;49.908;35.556;2023-05-10T00:50:27;2.72;;;1.20;;
73337;SDS011;61575;49.908;35.556;2023-05-10T00:53:30;3.60;;;1.20;;
73337;SDS011;61575;49.908;35.556;2023-05-10T00:56:34;2.92;;;1.20;;
73337;SDS011;61575;49.908;35.556;2023-05-10T00:59:36;3.13;;;1.30;;
73337;SDS011;61575;49.908;35.556;2023-05-10T01:02:38;3.37;;;1.47;;
73337;SDS011;61575;49.908;35.556;2023-05-10T01:05:41;4.07;;;1.10;;
73337;SDS011;61575;49.908;35.556;2023-05-10T01:08:42;2.65;;;1.33;;
73337;SDS011;61575;49.908;35.556;2023-05-10T01:11:45;2.20;;;1.08;;
73337;SDS011;61575;49.908;35.556;2023-05-10T01:14:47;3.65;;;1.60;;
73337;SDS011;61575;49.908;35.556;2023-05-10T01:17:50;3.03;;;1.20;;
73337;SDS011;61575;49.908;35.556;2023-05-10T01:21:01;7.22;;;2.20;;
73337;SDS011;61575;49.908;35.556;2023-05-10T01:24:26;8.88;;;2.50;;
73337;SDS011;61575;49.908;35.556;2023-05-10T01:27:41;12.15;;;3.42;;
73337;SDS011;61575;49.908;35.556;2023-05-10T01:34:32;10.40;;;3.53;;
73337;SDS011;61575;49.908;35.556;2023-05-10T01:37:46;8.05;;;3.30;;
73337;SDS011;61575;49.908;35.556;2023-05-10T01:47:40;4.15;;;1.27;;
73337;SDS011;61575;49.908;35.556;2023-05-10T01:50:45;3.03;;;0.90;;
73337;SDS011;61575;49.908;35.556;2023-05-10T01:53:49;4.55;;;1.45;;
73337;SDS011;61575;49.908;35.556;2023-05-10T01:57:00;2.03;;;0.88;;
73337;SDS011;61575;49.908;35.556;2023-05-10T02:00:07;2.50;;;1.10;;
73337;SDS011;61575;49.908;35.556;2023-05-10T02:03:17;3.03;;;1.20;;
73337;SDS011;61575;49.908;35.556;2023-05-10T02:06:22;2.20;;;0.85;;
73337;SDS011;61575;49.908;35.556;2023-05-10T02:09:26;2.25;;;0.95;;
73337;SDS011;61575;49.908;35.556;2023-05-10T02:12:32;2.22;;;1.20;;
73337;SDS011;61575;49.908;35.556;2023-05-10T02:15:37;2.72;;;1.00;;
73337;SDS011;61575;49.908;35.556;2023-05-10T02:18:41;1.40;;;0.80;;
73337;SDS011;61575;49.908;35.556;2023-05-10T02:21:44;2.45;;;1.10;;
73337;SDS011;61575;49.908;35.556;2023-05-10T02:24:47;2.22;;;1.10;;
73337;SDS011;61575;49.908;35.556;2023-05-10T02:27:51;2.17;;;0.93;;
73337;SDS011;61575;49.908;35.556;2023-05-10T02:30:57;2.47;;;1.00;;
73337;SDS011;61575;49.908;35.556;2023-05-10T02:33:59;2.20;;;1.00;;
73337;SDS011;61575;49.908;35.556;2023-05-10T02:37:02;3.13;;;1.30;;
73337;SDS011;61575;49.908;35.556;2023-05-10T02:40:06;2.67;;;1.20;;
73337;SDS011;61575;49.908;35.556;2023-05-10T02:43:11;2.35;;;1.00;;
73337;SDS011;61575;49.908;35.556;2023-05-10T02:46:15;3.05;;;1.00;;
73337;SDS011;61575;49.908;35.556;2023-05-10T02:49:17;3.00;;;1.00;;
73337;SDS011;61575;49.908;35.556;2023-05-10T02:52:23;2.85;;;0.93;;
73337;SDS011;61575;49.908;35.556;2023-05-10T02:55:30;4.05;;;1.00;;
73337;SDS011;61575;49.908;35.556;2023-05-10T02:58:34;3.08;;;1.00;;
73337;SDS011;61575;49.908;35.556;2023-05-10T03:01:36;1.75;;;0.80;;
73337;SDS011;61575;49.908;35.556;2023-05-10T03:04:38;2.33;;;1.03;;
73337;SDS011;61575;49.908;35.556;2023-05-10T03:07:40;1.47;;;0.90;;
73337;SDS011;61575;49.908;35.556;2023-05-10T03:11:16;2.87;;;1.00;;
73337;SDS011;61575;49.908;35.556;2023-05-10T03:14:10;1.85;;;0.80;;
73337;SDS011;61575;49.908;35.556;2023-05-10T03:20:47;2.90;;;1.08;;
73337;SDS011;61575;49.908;35.556;2023-05-10T03:23:53;2.92;;;1.00;;
73337;SDS011;61575;49.908;35.556;2023-05-10T03:27:01;1.80;;;0.80;;
73337;SDS011;61575;49.908;35.556;2023-05-10T03:30:07;2.53;;;1.00;;
73337;SDS011;61575;49.908;35.556;2023-05-10T03:33:11;3.10;;;1.20;;
73337;SDS011;61575;49.908;35.556;2023-05-10T03:36:18;2.25;;;1.00;;
73337;SDS011;61575;49.908;35.556;2023-05-10T03:39:21;2.85;;;1.35;;
73337;SDS011;61575;49.908;35.556;2023-05-10T03:42:27;2.33;;;1.20;;
73337;SDS011;61575;49.908;35.556;2023-05-10T03:45:30;4.13;;;1.23;;
73337;SDS011;61575;49.908;35.556;2023-05-10T03:48:33;3.25;;;1.02;;
73337;SDS011;61575;49.908;35.556;2023-05-10T03:51:35;2.47;;;1.10;;
73337;SDS011;61575;49.908;35.556;2023-05-10T03:54:37;3.22;;;1.02;;
73337;SDS011;61575;49.908;35.556;2023-05-10T03:57:40;2.63;;;1.02;;
73337;SDS011;61575;49.908;35.556;2023-05-10T04:00:42;2.17;;;1.08;;
73337;SDS011;61575;49.908;35.556;2023-05-10T04:03:45;3.10;;;1.13;;
73337;SDS011;61575;49.908;35.556;2023-05-10T04:06:47;2.90;;;1.10;;
73337;SDS011;61575;49.908;35.556;2023-05-10T04:09:49;2.95;;;1.05;;
73337;SDS011;61575;49.908;35.556;2023-05-10T04:12:51;3.15;;;1.25;;
73337;SDS011;61575;49.908;35.556;2023-05-10T04:15:53;4.03;;;1.45;;
73337;SDS011;61575;49.908;35.556;2023-05-10T04:18:55;2.75;;;1.10;;
73337;SDS011;61575;49.908;35.556;2023-05-10T04:21:57;2.22;;;0.90;;
73337;SDS011;61575;49.908;35.556;2023-05-10T04:24:59;1.60;;;0.80;;
73337;SDS011;61575;49.908;35.556;2023-05-10T04:28:01;2.55;;;1.00;;
73337;SDS011;61575;49.908;35.556;2023-05-10T04:31:03;2.90;;;0.98;;
73337;SDS011;61575;49.908;35.556;2023-05-10T04:34:07;2.90;;;1.20;;
73337;SDS011;61575;49.908;35.556;2023-05-10T04:37:09;2.75;;;1.00;;
73337;SDS011;61575;49.908;35.556;2023-05-10T04:40:11;2.28;;;0.90;;
73337;SDS011;61575;49.908;35.556;2023-05-10T04:43:13;2.30;;;1.00;;
73337;SDS011;61575;49.908;35.556;2023-05-10T04:46:15;3.22;;;1.30;;
73337;SDS011;61575;49.908;35.556;2023-05-10T04:49:17;2.13;;;1.00;;
73337;SDS011;61575;49.908;35.556;2023-05-10T04:52:19;3.10;;;1.10;;
73337;SDS011;61575;49.908;35.556;2023-05-10T04:55:21;2.73;;;1.10;;
73337;SDS011;61575;49.908;35.556;2023-05-10T04:58:23;3.23;;;1.10;;
73337;SDS011;61575;49.908;35.556;2023-05-10T05:01:25;2.63;;;0.93;;
73337;SDS011;61575;49.908;35.556;2023-05-10T05:04:27;1.97;;;1.00;;
73337;SDS011;61575;49.908;35.556;2023-05-10T05:07:29;3.10;;;0.83;;
73337;SDS011;61575;49.908;35.556;2023-05-10T05:10:32;2.58;;;1.00;;
73337;SDS011;61575;49.908;35.556;2023-05-10T05:13:33;1.73;;;0.80;;
73337;SDS011;61575;49.908;35.556;2023-05-10T05:16:36;1.88;;;0.80;;
73337;SDS011;61575;49.908;35.556;2023-05-10T05:19:38;3.47;;;1.07;;
73337;SDS011;61575;49.908;35.556;2023-05-10T05:22:40;2.22;;;0.80;;
73337;SDS011;61575;49.908;35.556;2023-05-10T05:25:42;2.13;;;0.80;;
73337;SDS011;61575;49.908;35.556;2023-05-10T05:28:44;2.88;;;0.82;;
73337;SDS011;61575;49.908;35.556;2023-05-10T05:31:45;2.17;;;1.00;;
73337;SDS011;61575;49.908;35.556;2023-05-10T05:34:48;2.85;;;0.90;;
73337;SDS011;61575;49.908;35.556;2023-05-10T05:37:50;2.17;;;1.02;;
73337;SDS011;61575;49.908;35.556;2023-05-10T05:40:52;2.97;;;1.27;;
73337;SDS011;61575;49.908;35.556;2023-05-10T05:43:54;2.37;;;0.90;;
73337;SDS011;61575;49.908;35.556;2023-05-10T05:46:55;3.30;;;1.00;;
73337;SDS011;61575;49.908;35.556;2023-05-10T05:49:57;3.23;;;1.20;;
73337;SDS011;61575;49.908;35.556;2023-05-10T05:52:59;2.25;;;0.98;;
73337;SDS011;61575;49.908;35.556;2023-05-10T05:56:01;3.55;;;1.10;;
73337;SDS011;61575;49.908;35.556;2023-05-10T05:59:03;2.97;;;1.10;;
73337;SDS011;61575;49.908;35.556;2023-05-10T06:02:05;7.50;;;2.30;;
73337;SDS011;61575;49.908;35.556;2023-05-10T06:05:08;4.95;;;1.38;;
73337;SDS011;61575;49.908;35.556;2023-05-10T06:08:10;2.45;;;1.00;;
73337;SDS011;61575;49.908;35.556;2023-05-10T06:11:12;2.60;;;1.00;;
73337;SDS011;61575;49.908;35.556;2023-05-10T06:14:14;2.17;;;0.90;;
73337;SDS011;61575;49.908;35.556;2023-05-10T06:17:16;1.80;;;0.70;;
73337;SDS011;61575;49.908;35.556;2023-05-10T06:20:18;2.43;;;0.80;;
73337;SDS011;61575;49.908;35.556;2023-05-10T06:23:20;2.10;;;0.88;;
73337;SDS011;61575;49.908;35.556;2023-05-10T06:26:22;1.65;;;0.90;;
73337;SDS011;61575;49.908;35.556;2023-05-10T06:29:23;1.90;;;0.73;;
73337;SDS011;61575;49.908;35.556;2023-05-10T06:32:25;2.07;;;0.90;;
73337;SDS011;61575;49.908;35.556;2023-05-10T06:35:27;1.80;;;0.80;;
73337;SDS011;61575;49.908;35.556;2023-05-10T06:41:32;4.13;;;1.60;;
73337;SDS011;61575;49.908;35.556;2023-05-10T06:44:34;2.97;;;1.13;;
73337;SDS011;61575;49.908;35.556;2023-05-10T06:47:36;3.47;;;1.35;;
73337;SDS011;61575;49.908;35.556;2023-05-10T06:50:39;3.13;;;1.20;;
73337;SDS011;61575;49.908;35.556;2023-05-10T06:53:41;2.10;;;0.90;;
73337;SDS011;61575;49.908;35.556;2023-05-10T06:56:43;1.90;;;0.90;;
73337;SDS011;61575;49.908;35.556;2023-05-10T06:59:45;1.75;;;0.80;;
73337;SDS011;61575;49.908;35.556;2023-05-10T07:02:47;1.65;;;0.80;;
73337;SDS011;61575;49.908;35.556;2023-05-10T07:05:49;2.25;;;0.85;;
73337;SDS011;61575;49.908;35.556;2023-05-10T07:08:51;3.57;;;1.00;;
73337;SDS011;61575;49.908;35.556;2023-05-10T07:11:53;3.28;;;0.88;;
73337;SDS011;61575;49.908;35.556;2023-05-10T07:14:55;2.33;;;0.98;;
73337;SDS011;61575;49.908;35.556;2023-05-10T07:17:57;1.45;;;0.75;;
73337;SDS011;61575;49.908;35.556;2023-05-10T07:20:59;3.60;;;1.00;;
73337;SDS011;61575;49.908;35.556;2023-05-10T07:24:01;2.58;;;0.70;;
73337;SDS011;61575;49.908;35.556;2023-05-10T07:27:04;1.85;;;0.77;;
73337;SDS011;61575;49.908;35.556;2023-05-10T07:30:06;2.17;;;0.70;;
73337;SDS011;61575;49.908;35.556;2023-05-10T07:33:09;2.40;;;0.80;;
73337;SDS011;61575;49.908;35.556;2023-05-10T07:36:12;2.10;;;0.90;;
73337;SDS011;61575;49.908;35.556;2023-05-10T07:39:14;2.55;;;1.15;;
73337;SDS011;61575;49.908;35.556;2023-05-10T07:42:27;2.03;;;0.80;;
73337;SDS011;61575;49.908;35.556;2023-05-10T07:45:29;2.13;;;0.88;;
73337;SDS011;61575;49.908;35.556;2023-05-10T07:48:31;1.75;;;0.90;;
73337;SDS011;61575;49.908;35.556;2023-05-10T07:51:33;2.08;;;0.90;;
73337;SDS011;61575;49.908;35.556;2023-05-10T07:54:35;2.33;;;0.90;;
73337;SDS011;61575;49.908;35.556;2023-05-10T07:57:37;3.57;;;0.90;;
73337;SDS011;61575;49.908;35.556;2023-05-10T08:00:39;1.90;;;0.80;;
73337;SDS011;61575;49.908;35.556;2023-05-10T08:03:42;2.60;;;1.00;;
73337;SDS011;61575;49.908;35.556;2023-05-10T08:06:44;1.60;;;0.80;;
73337;SDS011;61575;49.908;35.556;2023-05-10T08:09:46;1.67;;;0.90;;
73337;SDS011;61575;49.908;35.556;2023-05-10T08:12:48;1.63;;;0.77;;
73337;SDS011;61575;49.908;35.556;2023-05-10T08:15:50;2.27;;;0.97;;
73337;SDS011;61575;49.908;35.556;2023-05-10T08:18:54;2.95;;;0.90;;
73337;SDS011;61575;49.908;35.556;2023-05-10T08:21:56;3.83;;;1.00;;
73337;SDS011;61575;49.908;35.556;2023-05-10T08:24:58;2.43;;;0.83;;
73337;SDS011;61575;49.908;35.556;2023-05-10T08:28:00;2.17;;;0.80;;
73337;SDS011;61575;49.908;35.556;2023-05-10T08:31:04;1.80;;;0.73;;
73337;SDS011;61575;49.908;35.556;2023-05-10T08:34:06;3.55;;;0.70;;
73337;SDS011;61575;49.908;35.556;2023-05-10T08:37:09;1.45;;;0.70;;
73337;SDS011;61575;49.908;35.556;2023-05-10T08:40:11;1.63;;;0.70;;
73337;SDS011;61575;49.908;35.556;2023-05-10T08:43:15;1.83;;;0.80;;
73337;SDS011;61575;49.908;35.556;2023-05-10T08:46:18;1.27;;;0.70;;
73337;SDS011;61575;49.908;35.556;2023-05-10T08:49:21;1.30;;;0.70;;
73337;SDS011;61575;49.908;35.556;2023-05-10T08:52:24;1.55;;;0.60;;
73337;SDS011;61575;49.908;35.556;2023-05-10T08:55:29;1.60;;;0.65;;
73337;SDS011;61575;49.908;35.556;2023-05-10T08:58:32;1.55;;;0.80;;
73337;SDS011;61575;49.908;35.556;2023-05-10T09:01:35;1.83;;;0.63;;
73337;SDS011;61575;49.908;35.556;2023-05-10T09:04:38;4.65;;;0.88;;
73337;SDS011;61575;49.908;35.556;2023-05-10T09:07:40;1.55;;;0.70;;
73337;SDS011;61575;49.908;35.556;2023-05-10T09:10:43;1.88;;;0.70;;
73337;SDS011;61575;49.908;35.556;2023-05-10T09:13:46;1.80;;;0.70;;
73337;SDS011;61575;49.908;35.556;2023-05-10T09:16:52;3.13;;;0.80;;
73337;SDS011;61575;49.908;35.556;2023-05-10T09:19:57;2.90;;;1.08;;
73337;SDS011;61575;49.908;35.556;2023-05-10T09:23:03;1.00;;;0.57;;
73337;SDS011;61575;49.908;35.556;2023-05-10T09:26:05;2.30;;;0.70;;
73337;SDS011;61575;49.908;35.556;2023-05-10T09:29:07;1.30;;;0.70;;
73337;SDS011;61575;49.908;35.556;2023-05-10T09:32:09;1.83;;;0.82;;
73337;SDS011;61575;49.908;35.556;2023-05-10T09:35:15;1.60;;;0.60;;
73337;SDS011;61575;49.908;35.556;2023-05-10T09:38:27;1.65;;;0.70;;
73337;SDS011;61575;49.908;35.556;2023-05-10T09:41:29;1.03;;;0.60;;
73337;SDS011;61575;49.908;35.556;2023-05-10T09:44:31;1.13;;;0.50;;
73337;SDS011;61575;49.908;35.556;2023-05-10T09:47:34;1.85;;;0.80;;
73337;SDS011;61575;49.908;35.556;2023-05-10T09:50:37;1.65;;;0.60;;
73337;SDS011;61575;49.908;35.556;2023-05-10T09:53:39;1.45;;;0.68;;
73337;SDS011;61575;49.908;35.556;2023-05-10T09:56:41;2.30;;;0.77;;
73337;SDS011;61575;49.908;35.556;2023-05-10T09:59:43;3.08;;;0.90;;
73337;SDS011;61575;49.908;35.556;2023-05-10T10:02:47;1.63;;;0.73;;
73337;SDS011;61575;49.908;35.556;2023-05-10T10:05:55;2.28;;;0.80;;
73337;SDS011;61575;49.908;35.556;2023-05-10T10:08:57;1.80;;;0.70;;
73337;SDS011;61575;49.908;35.556;2023-05-10T10:12:00;2.57;;;0.90;;
73337;SDS011;61575;49.908;35.556;2023-05-10T10:15:02;2.33;;;0.70;;
73337;SDS011;61575;49.908;35.556;2023-05-10T10:18:06;1.45;;;0.70;;
73337;SDS011;61575;49.908;35.556;2023-05-10T10:21:09;2.13;;;0.75;;
73337;SDS011;61575;49.908;35.556;2023-05-10T10:24:11;2.25;;;0.95;;
73337;SDS011;61575;49.908;35.556;2023-05-10T10:27:20;2.17;;;1.00;;
73337;SDS011;61575;49.908;35.556;2023-05-10T10:30:37;5.35;;;1.00;;
73337;SDS011;61575;49.908;35.556;2023-05-10T10:36:59;2.28;;;0.80;;
73337;SDS011;61575;49.908;35.556;2023-05-10T10:43:28;1.85;;;0.80;;
73337;SDS011;61575;49.908;35.556;2023-05-10T10:46:30;2.05;;;0.95;;
73337;SDS011;61575;49.908;35.556;2023-05-10T10:52:43;3.80;;;0.60;;
73337;SDS011;61575;49.908;35.556;2023-05-10T10:55:47;2.17;;;0.90;;
73337;SDS011;61575;49.908;35.556;2023-05-10T10:58:50;2.15;;;0.70;;
73337;SDS011;61575;49.908;35.556;2023-05-10T11:01:53;1.50;;;0.65;;
73337;SDS011;61575;49.908;35.556;2023-05-10T11:04:55;2.20;;;0.80;;
73337;SDS011;61575;49.908;35.556;2023-05-10T11:07:58;2.47;;;0.80;;
73337;SDS011;61575;49.908;35.556;2023-05-10T11:11:05;1.95;;;0.70;;
73337;SDS011;61575;49.908;35.556;2023-05-10T11:14:08;2.30;;;0.60;;
73337;SDS011;61575;49.908;35.556;2023-05-10T11:20:49;2.33;;;0.70;;
73337;SDS011;61575;49.908;35.556;2023-05-10T11:23:53;1.67;;;0.70;;
73337;SDS011;61575;49.908;35.556;2023-05-10T11:26:58;1.60;;;0.70;;
73337;SDS011;61575;49.908;35.556;2023-05-10T11:29:59;1.17;;;0.60;;
73337;SDS011;61575;49.908;35.556;2023-05-10T11:33:04;1.52;;;0.80;;
73337;SDS011;61575;49.908;35.556;2023-05-10T11:36:10;1.67;;;0.80;;
73337;SDS011;61575;49.908;35.556;2023-05-10T11:39:13;2.15;;;0.85;;
73337;SDS011;61575;49.908;35.556;2023-05-10T11:42:15;1.92;;;0.80;;
73337;SDS011;61575;49.908;35.556;2023-05-10T11:45:17;2.13;;;0.90;;
73337;SDS011;61575;49.908;35.556;2023-05-10T11:48:19;1.77;;;0.75;;
73337;SDS011;61575;49.908;35.556;2023-05-10T11:51:33;1.42;;;0.70;;
73337;SDS011;61575;49.908;35.556;2023-05-10T11:54:53;2.75;;;0.70;;
73337;SDS011;61575;49.908;35.556;2023-05-10T11:58:01;2.63;;;0.75;;
73337;SDS011;61575;49.908;35.556;2023-05-10T12:01:04;2.10;;;0.70;;
73337;SDS011;61575;49.908;35.556;2023-05-10T12:04:08;4.80;;;0.80;;
73337;SDS011;61575;49.908;35.556;2023-05-10T12:07:10;1.90;;;0.60;;
73337;SDS011;61575;49.908;35.556;2023-05-10T12:10:13;1.75;;;0.80;;
73337;SDS011;61575;49.908;35.556;2023-05-10T12:13:21;1.92;;;0.85;;
73337;SDS011;61575;49.908;35.556;2023-05-10T12:16:26;1.47;;;0.63;;
73337;SDS011;61575;49.908;35.556;2023-05-10T12:19:37;1.98;;;0.70;;
73337;SDS011;61575;49.908;35.556;2023-05-10T12:22:40;1.35;;;0.70;;
73337;SDS011;61575;49.908;35.556;2023-05-10T12:25:42;1.90;;;0.70;;
73337;SDS011;61575;49.908;35.556;2023-05-10T12:28:43;2.03;;;0.80;;
73337;SDS011;61575;49.908;35.556;2023-05-10T12:31:48;1.53;;;0.70;;
73337;SDS011;61575;49.908;35.556;2023-05-10T12:34:57;2.07;;;0.70;;
73337;SDS011;61575;49.908;35.556;2023-05-10T12:37:59;1.23;;;0.60;;
73337;SDS011;61575;49.908;35.556;2023-05-10T12:41:02;1.00;;;0.60;;
73337;SDS011;61575;49.908;35.556;2023-05-10T12:44:05;1.48;;;0.60;;
73337;SDS011;61575;49.908;35.556;2023-05-10T12:47:07;1.00;;;0.60;;
73337;SDS011;61575;49.908;35.556;2023-05-10T12:50:09;1.35;;;0.70;;
73337;SDS011;61575;49.908;35.556;2023-05-10T12:53:13;1.00;;;0.50;;
73337;SDS011;61575;49.908;35.556;2023-05-10T12:56:16;6.03;;;0.60;;
73337;SDS011;61575;49.908;35.556;2023-05-10T12:59:18;1.80;;;0.70;;
73337;SDS011;61575;49.908;35.556;2023-05-10T13:02:20;2.20;;;0.77;;
73337;SDS011;61575;49.908;35.556;2023-05-10T13:05:24;2.75;;;0.70;;
73337;SDS011;61575;49.908;35.556;2023-05-10T13:08:26;2.50;;;0.73;;
73337;SDS011;61575;49.908;35.556;2023-05-10T13:11:28;1.75;;;0.82;;
73337;SDS011;61575;49.908;35.556;2023-05-10T13:14:30;2.13;;;0.70;;
73337;SDS011;61575;49.908;35.556;2023-05-10T13:17:32;1.48;;;0.75;;
73337;SDS011;61575;49.908;35.556;2023-05-10T13:20:34;2.10;;;0.63;;
73337;SDS011;61575;49.908;35.556;2023-05-10T13:23:36;0.77;;;0.53;;
73337;SDS011;61575;49.908;35.556;2023-05-10T13:26:38;1.53;;;0.70;;
73337;SDS011;61575;49.908;35.556;2023-05-10T13:29:40;2.00;;;0.60;;
73337;SDS011;61575;49.908;35.556;2023-05-10T13:32:45;2.15;;;0.82;;
73337;SDS011;61575;49.908;35.556;2023-05-10T13:35:47;0.83;;;0.53;;
73337;SDS011;61575;49.908;35.556;2023-05-10T13:38:48;1.27;;;0.60;;
73337;SDS011;61575;49.908;35.556;2023-05-10T13:41:50;1.53;;;0.70;;
73337;SDS011;61575;49.908;35.556;2023-05-10T13:44:54;2.53;;;1.20;;
73337;SDS011;61575;49.908;35.556;2023-05-10T13:47:56;2.70;;;1.40;;
73337;SDS011;61575;49.908;35.556;2023-05-10T13:50:58;1.70;;;0.80;;
73337;SDS011;61575;49.908;35.556;2023-05-10T13:54:00;0.60;;;0.53;;
73337;SDS011;61575;49.908;35.556;2023-05-10T14:00:06;1.63;;;0.80;;
73337;SDS011;61575;49.908;35.556;2023-05-10T14:03:09;3.10;;;1.00;;
73337;SDS011;61575;49.908;35.556;2023-05-10T14:06:13;3.95;;;1.00;;
73337;SDS011;61575;49.908;35.556;2023-05-10T14:09:15;1.40;;;0.80;;
73337;SDS011;61575;49.908;35.556;2023-05-10T14:12:18;2.92;;;0.90;;
73337;SDS011;61575;49.908;35.556;2023-05-10T14:15:20;2.95;;;0.90;;
73337;SDS011;61575;49.908;35.556;2023-05-10T14:18:22;1.50;;;0.70;;
73337;SDS011;61575;49.908;35.556;2023-05-10T14:21:24;3.67;;;1.00;;
73337;SDS011;61575;49.908;35.556;2023-05-10T14:24:26;1.48;;;0.70;;
73337;SDS011;61575;49.908;35.556;2023-05-10T14:27:27;3.07;;;0.70;;
73337;SDS011;61575;49.908;35.556;2023-05-10T14:30:30;1.33;;;0.70;;
73337;SDS011;61575;49.908;35.556;2023-05-10T14:33:34;3.13;;;0.80;;
73337;SDS011;61575;49.908;35.556;2023-05-10T14:36:35;2.43;;;0.70;;
73337;SDS011;61575;49.908;35.556;2023-05-10T14:39:37;1.88;;;0.73;;
73337;SDS011;61575;49.908;35.556;2023-05-10T14:42:39;1.67;;;0.70;;
73337;SDS011;61575;49.908;35.556;2023-05-10T14:45:41;0.98;;;0.60;;
73337;SDS011;61575;49.908;35.556;2023-05-10T14:48:43;3.83;;;0.80;;
73337;SDS011;61575;49.908;35.556;2023-05-10T14:51:45;1.83;;;0.67;;
73337;SDS011;61575;49.908;35.556;2023-05-10T14:54:47;1.23;;;0.70;;
73337;SDS011;61575;49.908;35.556;2023-05-10T14:57:49;2.30;;;0.57;;
73337;SDS011;61575;49.908;35.556;2023-05-10T15:00:52;1.83;;;0.70;;
73337;SDS011;61575;49.908;35.556;2023-05-10T15:03:54;1.50;;;0.73;;
73337;SDS011;61575;49.908;35.556;2023-05-10T15:06:57;0.80;;;0.50;;
73337;SDS011;61575;49.908;35.556;2023-05-10T15:10:00;1.45;;;0.77;;
73337;SDS011;61575;49.908;35.556;2023-05-10T15:13:03;1.27;;;0.63;;
73337;SDS011;61575;49.908;35.556;2023-05-10T15:16:05;1.20;;;0.70;;
73337;SDS011;61575;49.908;35.556;2023-05-10T15:19:07;5.72;;;0.73;;
73337;SDS011;61575;49.908;35.556;2023-05-10T15:22:09;1.23;;;0.60;;
73337;SDS011;61575;49.908;35.556;2023-05-10T15:25:11;1.43;;;0.70;;
73337;SDS011;61575;49.908;35.556;2023-05-10T15:31:16;1.20;;;0.60;;
73337;SDS011;61575;49.908;35.556;2023-05-10T15:34:18;1.37;;;0.67;;
73337;SDS011;61575;49.908;35.556;2023-05-10T15:37:20;5.88;;;2.25;;
73337;SDS011;61575;49.908;35.556;2023-05-10T15:40:24;4.47;;;1.60;;
73337;SDS011;61575;49.908;35.556;2023-05-10T15:43:26;5.30;;;1.70;;
73337;SDS011;61575;49.908;35.556;2023-05-10T15:46:28;4.83;;;1.97;;
73337;SDS011;61575;49.908;35.556;2023-05-10T15:52:32;1.65;;;0.82;;
73337;SDS011;61575;49.908;35.556;2023-05-10T15:55:34;1.75;;;0.80;;
73337;SDS011;61575;49.908;35.556;2023-05-10T15:58:37;2.05;;;0.90;;
73337;SDS011;61575;49.908;35.556;2023-05-10T16:01:40;3.88;;;1.10;;
73337;SDS011;61575;49.908;35.556;2023-05-10T16:04:42;5.03;;;1.67;;
73337;SDS011;61575;49.908;35.556;2023-05-10T16:07:45;5.53;;;1.90;;
73337;SDS011;61575;49.908;35.556;2023-05-10T16:10:47;4.13;;;1.73;;
73337;SDS011;61575;49.908;35.556;2023-05-10T16:13:50;2.88;;;1.23;;
73337;SDS011;61575;49.908;35.556;2023-05-10T16:16:52;2.35;;;1.00;;
73337;SDS011;61575;49.908;35.556;2023-05-10T16:19:54;2.72;;;1.25;;
73337;SDS011;61575;49.908;35.556;2023-05-10T16:22:56;3.47;;;1.20;;
73337;SDS011;61575;49.908;35.556;2023-05-10T16:26:03;2.47;;;0.95;;
73337;SDS011;61575;49.908;35.556;2023-05-10T16:29:06;2.17;;;0.80;;
73337;SDS011;61575;49.908;35.556;2023-05-10T16:32:08;2.63;;;1.02;;
73337;SDS011;61575;49.908;35.556;2023-05-10T16:35:10;3.63;;;1.42;;
73337;SDS011;61575;49.908;35.556;2023-05-10T16:38:12;2.60;;;1.00;;
73337;SDS011;61575;49.908;35.556;2023-05-10T16:44:17;4.15;;;1.67;;
73337;SDS011;61575;49.908;35.556;2023-05-10T16:47:21;5.32;;;1.27;;
73337;SDS011;61575;49.908;35.556;2023-05-10T16:50:23;2.45;;;1.10;;
73337;SDS011;61575;49.908;35.556;2023-05-10T16:53:25;2.27;;;0.80;;
73337;SDS011;61575;49.908;35.556;2023-05-10T16:56:29;1.88;;;0.82;;
73337;SDS011;61575;49.908;35.556;2023-05-10T16:59:31;2.03;;;0.80;;
73337;SDS011;61575;49.908;35.556;2023-05-10T17:02:34;2.17;;;0.83;;
73337;SDS011;61575;49.908;35.556;2023-05-10T17:05:36;2.35;;;0.95;;
73337;SDS011;61575;49.908;35.556;2023-05-10T17:08:38;2.40;;;1.08;;
73337;SDS011;61575;49.908;35.556;2023-05-10T17:11:40;2.87;;;1.10;;
73337;SDS011;61575;49.908;35.556;2023-05-10T17:14:42;2.70;;;1.02;;
73337;SDS011;61575;49.908;35.556;2023-05-10T17:17:45;5.43;;;1.43;;
73337;SDS011;61575;49.908;35.556;2023-05-10T17:20:47;5.13;;;1.63;;
73337;SDS011;61575;49.908;35.556;2023-05-10T17:23:50;5.78;;;2.30;;
73337;SDS011;61575;49.908;35.556;2023-05-10T17:26:52;5.83;;;2.10;;
73337;SDS011;61575;49.908;35.556;2023-05-10T17:29:57;5.87;;;1.80;;
73337;SDS011;61575;49.908;35.556;2023-05-10T17:32:59;5.35;;;2.00;;
73337;SDS011;61575;49.908;35.556;2023-05-10T17:36:02;6.68;;;2.67;;
73337;SDS011;61575;49.908;35.556;2023-05-10T17:39:04;9.43;;;3.03;;
73337;SDS011;61575;49.908;35.556;2023-05-10T17:42:06;10.25;;;4.38;;
73337;SDS011;61575;49.908;35.556;2023-05-10T17:45:08;11.63;;;4.32;;
73337;SDS011;61575;49.908;35.556;2023-05-10T17:48:11;11.27;;;5.18;;
73337;SDS011;61575;49.908;35.556;2023-05-10T17:51:13;14.27;;;5.47;;
73337;SDS011;61575;49.908;35.556;2023-05-10T17:54:15;14.03;;;5.70;;
73337;SDS011;61575;49.908;35.556;2023-05-10T17:57:17;13.80;;;5.80;;
73337;SDS011;61575;49.908;35.556;2023-05-10T18:00:20;17.58;;;6.80;;
73337;SDS011;61575;49.908;35.556;2023-05-10T18:03:22;15.77;;;6.70;;
73337;SDS011;61575;49.908;35.556;2023-05-10T18:06:24;12.38;;;4.55;;
73337;SDS011;61575;49.908;35.556;2023-05-10T18:09:27;6.07;;;2.23;;
73337;SDS011;61575;49.908;35.556;2023-05-10T18:12:29;3.10;;;1.50;;
73337;SDS011;61575;49.908;35.556;2023-05-10T18:15:31;4.27;;;1.90;;
73337;SDS011;61575;49.908;35.556;2023-05-10T18:18:33;3.03;;;1.80;;
73337;SDS011;61575;49.908;35.556;2023-05-10T18:21:36;2.20;;;0.90;;
73337;SDS011;61575;49.908;35.556;2023-05-10T18:24:38;2.25;;;1.15;;
73337;SDS011;61575;49.908;35.556;2023-05-10T18:27:40;2.60;;;1.30;;
73337;SDS011;61575;49.908;35.556;2023-05-10T18:30:42;2.10;;;1.00;;
73337;SDS011;61575;49.908;35.556;2023-05-10T18:33:44;2.30;;;0.80;;
73337;SDS011;61575;49.908;35.556;2023-05-10T18:36:47;2.33;;;1.05;;
73337;SDS011;61575;49.908;35.556;2023-05-10T18:39:49;4.87;;;2.10;;
73337;SDS011;61575;49.908;35.556;2023-05-10T18:42:52;6.80;;;2.80;;
73337;SDS011;61575;49.908;35.556;2023-05-10T18:45:54;7.85;;;2.90;;
73337;SDS011;61575;49.908;35.556;2023-05-10T18:48:56;11.47;;;5.17;;